createdAt,value
2023-05-14T00:01:54.586Z,15.46
2023-05-14T00:04:55.569Z,15.42
2023-05-14T00:07:57.653Z,15.40
2023-05-14T00:10:58.587Z,15.36
2023-05-14T00:13:59.622Z,15.32
2023-05-14T00:17:00.661Z,15.29
2023-05-14T00:20:01.672Z,15.25
2023-05-14T00:23:02.834Z,15.25
2023-05-14T00:26:03.626Z,15.27
2023-05-14T00:29:05.638Z,15.29
2023-05-14T00:32:07.753Z,15.31
2023-05-14T00:35:09.762Z,15.33
2023-05-14T00:38:03.805Z,15.38
2023-05-14T00:41:04.668Z,15.43
2023-05-14T00:44:05.635Z,15.50
2023-05-14T00:47:06.794Z,15.61
2023-05-14T00:50:07.673Z,15.68
2023-05-14T00:53:08.696Z,15.67
2023-05-14T00:56:09.686Z,15.64
2023-05-14T00:59:10.762Z,15.60
2023-05-14T01:02:11.714Z,15.55
2023-05-14T01:05:12.762Z,15.48
2023-05-14T01:08:11.853Z,15.45
2023-05-14T01:11:20.713Z,15.42
2023-05-14T01:14:30.714Z,15.41
2023-05-14T01:17:31.719Z,15.47
2023-05-14T01:20:32.723Z,15.79
2023-05-14T01:23:34.775Z,16.42
2023-05-14T01:26:37.754Z,16.95
2023-05-14T01:29:38.723Z,17.10
2023-05-14T01:32:39.781Z,17.19
2023-05-14T01:35:40.802Z,17.43
2023-05-14T01:38:34.920Z,17.55
2023-05-14T01:41:35.718Z,17.53
2023-05-14T01:44:36.753Z,17.47
2023-05-14T01:47:37.852Z,17.37
2023-05-14T01:50:38.789Z,17.27
2023-05-14T01:53:41.775Z,17.17
2023-05-14T01:56:42.786Z,17.07
2023-05-14T01:59:43.827Z,16.97
2023-05-14T02:02:44.788Z,16.87
2023-05-14T02:05:45.792Z,16.79
2023-05-14T02:08:46.855Z,16.69
2023-05-14T02:11:47.785Z,16.60
2023-05-14T02:14:48.780Z,16.55
2023-05-14T02:17:49.927Z,16.48
2023-05-14T02:20:50.795Z,16.41
2023-05-14T02:23:51.851Z,16.34
2023-05-14T02:26:52.828Z,16.27
2023-05-14T02:29:53.886Z,16.18
2023-05-14T02:32:54.941Z,16.08
2023-05-14T02:35:57.844Z,15.95
2023-05-14T02:38:58.951Z,15.83
2023-05-14T02:41:59.838Z,15.74
2023-05-14T02:45:00.853Z,15.58
2023-05-14T02:48:01.907Z,15.46
2023-05-14T02:51:03.877Z,15.44
2023-05-14T02:54:04.878Z,15.48
2023-05-14T02:57:05.902Z,15.54
2023-05-14T03:00:06.900Z,15.62
2023-05-14T03:03:07.920Z,15.67
2023-05-14T03:06:11.926Z,15.71
2023-05-14T03:09:12.967Z,15.76
2023-05-14T03:12:13.956Z,15.80
2023-05-14T03:15:15.909Z,15.81
2023-05-14T03:18:17.933Z,15.84
2023-05-14T03:21:18.948Z,15.87
2023-05-14T03:24:19.937Z,15.87
2023-05-14T03:27:20.946Z,15.87
2023-05-14T03:30:22.204Z,15.82
2023-05-14T03:33:22.934Z,15.79
2023-05-14T03:36:23.970Z,15.77
2023-05-14T03:39:27.901Z,15.84
2023-05-14T03:42:32.046Z,15.86
2023-05-14T03:45:33.940Z,15.90
2023-05-14T03:48:35.050Z,16.04
2023-05-14T03:51:35.990Z,16.18
2023-05-14T03:54:36.959Z,16.35
2023-05-14T03:57:38.193Z,16.43
2023-05-14T04:00:39.965Z,16.49
2023-05-14T04:03:41.195Z,16.66
2023-05-14T04:06:42.036Z,16.91
2023-05-14T04:09:43.005Z,17.13
2023-05-14T04:12:45.002Z,17.38
2023-05-14T04:15:47.045Z,17.66
2023-05-14T04:18:48.107Z,17.92
2023-05-14T04:21:49.055Z,18.11
2023-05-14T04:24:50.025Z,18.31
2023-05-14T04:27:51.054Z,18.55
2023-05-14T04:30:52.011Z,18.83
2023-05-14T04:33:54.148Z,19.07
2023-05-14T04:36:55.063Z,19.27
2023-05-14T04:39:56.062Z,19.52
2023-05-14T04:42:57.031Z,19.78
2023-05-14T04:45:59.108Z,20.02
2023-05-14T04:49:00.125Z,20.24
2023-05-14T04:52:01.080Z,20.45
2023-05-14T04:55:02.093Z,20.57
2023-05-14T04:58:03.103Z,20.60
2023-05-14T05:01:04.143Z,20.73
2023-05-14T05:04:05.188Z,20.93
2023-05-14T05:07:06.119Z,21.05
2023-05-14T05:10:07.116Z,21.14
2023-05-14T05:13:08.154Z,21.16
2023-05-14T05:16:09.160Z,21.18
2023-05-14T05:19:10.262Z,21.18
2023-05-14T05:22:11.240Z,21.10
2023-05-14T05:25:13.250Z,20.95
2023-05-14T05:28:15.227Z,20.88
2023-05-14T05:31:18.343Z,20.92
2023-05-14T05:34:22.181Z,21.01
2023-05-14T05:37:24.187Z,21.24
2023-05-14T05:40:20.392Z,21.69
2023-05-14T05:43:21.176Z,22.17
2023-05-14T05:46:22.254Z,22.69
2023-05-14T05:49:23.182Z,23.08
2023-05-14T05:52:24.189Z,23.42
2023-05-14T05:55:25.211Z,23.60
2023-05-14T05:58:26.343Z,23.95
2023-05-14T06:01:27.195Z,24.35
2023-05-14T06:04:30.204Z,24.69
2023-05-14T06:07:31.586Z,24.98
2023-05-14T06:10:32.211Z,25.25
2023-05-14T06:13:33.272Z,25.33
2023-05-14T06:16:34.285Z,25.45
2023-05-14T06:19:35.226Z,25.55
2023-05-14T06:22:36.257Z,25.91
2023-05-14T06:25:37.371Z,26.36
2023-05-14T06:28:38.288Z,26.58
2023-05-14T06:31:40.434Z,26.83
2023-05-14T06:34:41.275Z,27.11
2023-05-14T06:37:42.327Z,27.33
2023-05-14T06:40:43.266Z,27.48
2023-05-14T06:43:44.297Z,27.71
2023-05-14T06:46:38.330Z,28.05
2023-05-14T06:49:25.516Z,28.29
2023-05-14T06:52:26.327Z,28.51
2023-05-14T06:55:27.316Z,28.81
2023-05-14T06:58:28.334Z,29.10
2023-05-14T07:01:29.342Z,29.21
2023-05-14T07:04:30.398Z,29.14
2023-05-14T07:07:31.321Z,29.25
2023-05-14T07:10:32.345Z,29.40
2023-05-14T07:13:33.303Z,29.51
2023-05-14T07:16:36.435Z,29.71
2023-05-14T07:19:37.355Z,29.82
2023-05-14T07:22:38.355Z,29.96
2023-05-14T07:25:39.383Z,30.01
2023-05-14T07:28:40.389Z,30.11
2023-05-14T07:31:41.414Z,30.32
2023-05-14T07:34:42.361Z,30.58
2023-05-14T07:37:43.390Z,30.70
2023-05-14T07:40:38.406Z,30.69
2023-05-14T07:43:18.679Z,30.71
2023-05-14T07:46:05.399Z,30.78
2023-05-14T07:49:06.366Z,30.82
2023-05-14T07:52:07.426Z,30.77
2023-05-14T07:55:08.423Z,30.85
2023-05-14T07:58:09.443Z,31.01
2023-05-14T08:01:13.425Z,31.16
2023-05-14T08:04:07.568Z,31.08
2023-05-14T08:07:08.496Z,31.09
2023-05-14T08:10:09.563Z,31.17
2023-05-14T08:13:10.733Z,31.42
2023-05-14T08:16:11.549Z,31.68
2023-05-14T08:19:12.630Z,31.69
2023-05-14T08:22:14.497Z,31.68
2023-05-14T08:25:16.516Z,31.97
2023-05-14T08:28:17.521Z,32.11
2023-05-14T08:31:18.526Z,32.15
2023-05-14T08:34:19.429Z,32.34
2023-05-14T08:37:20.502Z,32.43
2023-05-14T08:40:21.657Z,32.70
2023-05-14T08:43:23.493Z,32.97
2023-05-14T08:46:24.517Z,33.15
2023-05-14T08:49:43.520Z,33.27
2023-05-14T08:52:47.551Z,33.29
2023-05-14T08:55:48.554Z,33.37
2023-05-14T08:58:49.692Z,33.33
2023-05-14T09:01:50.678Z,33.34
2023-05-14T09:04:51.570Z,33.57
2023-05-14T09:07:52.571Z,33.80
2023-05-14T09:10:53.558Z,34.01
2023-05-14T09:13:54.609Z,33.87
2023-05-14T09:16:55.588Z,33.63
2023-05-14T09:19:56.571Z,33.39
2023-05-14T09:22:57.611Z,33.46
2023-05-14T09:25:58.589Z,33.43
2023-05-14T09:28:59.602Z,33.33
2023-05-14T09:32:00.699Z,33.32
2023-05-14T09:34:54.743Z,33.49
2023-05-14T09:38:02.693Z,33.39
2023-05-14T09:41:03.624Z,32.88
2023-05-14T09:44:06.129Z,32.31
2023-05-14T09:47:07.662Z,31.56
2023-05-14T09:50:09.735Z,30.73
2023-05-14T09:53:10.678Z,29.98
2023-05-14T09:56:11.633Z,29.38
2023-05-14T09:59:12.744Z,28.72
2023-05-14T10:02:13.715Z,28.22
2023-05-14T10:05:14.668Z,27.89
2023-05-14T10:08:16.661Z,27.57
2023-05-14T10:11:18.697Z,27.39
2023-05-14T10:14:32.773Z,27.25
2023-05-14T10:17:34.701Z,26.93
2023-05-14T10:20:35.691Z,26.67
2023-05-14T10:23:36.704Z,26.48
2023-05-14T10:26:37.726Z,26.27
2023-05-14T10:29:50.763Z,26.24
2023-05-14T10:32:51.759Z,26.25
2023-05-14T10:36:10.751Z,26.35
2023-05-14T10:39:11.748Z,26.51
2023-05-14T10:42:12.715Z,26.51
2023-05-14T10:45:14.773Z,26.36
2023-05-14T10:48:16.167Z,26.31
2023-05-14T10:51:16.810Z,26.28
2023-05-14T10:54:17.753Z,26.38
2023-05-14T10:57:22.760Z,26.33
2023-05-14T11:00:17.921Z,26.23
2023-05-14T11:03:11.862Z,26.25
2023-05-14T11:06:13.783Z,26.26
2023-05-14T11:09:14.790Z,26.09
2023-05-14T11:12:15.822Z,25.79
2023-05-14T11:15:17.798Z,25.63
2023-05-14T11:18:18.806Z,25.57
2023-05-14T11:21:19.821Z,25.58
2023-05-14T11:24:20.796Z,25.62
2023-05-14T11:27:21.832Z,25.71
2023-05-14T11:30:28.890Z,25.76
2023-05-14T11:33:29.830Z,25.83
2023-05-14T11:36:30.876Z,25.89
2023-05-14T11:39:31.822Z,25.88
2023-05-14T11:42:32.895Z,25.97
2023-05-14T11:45:41.033Z,26.12
2023-05-14T11:48:42.888Z,26.18
2023-05-14T11:51:59.011Z,26.33
2023-05-14T11:54:59.852Z,26.53
2023-05-14T11:58:01.949Z,26.69
2023-05-14T12:01:05.903Z,26.89
2023-05-14T12:04:06.945Z,27.08
2023-05-14T12:07:07.873Z,27.17
2023-05-14T12:10:08.916Z,27.20
2023-05-14T12:13:09.898Z,27.12
2023-05-14T12:16:10.917Z,26.95
2023-05-14T12:19:14.916Z,26.78
2023-05-14T12:22:15.946Z,26.59
2023-05-14T12:25:10.053Z,26.57
2023-05-14T12:28:10.950Z,26.58
2023-05-14T12:31:12.034Z,26.38
2023-05-14T12:34:13.130Z,25.99
2023-05-14T12:37:14.421Z,25.78
2023-05-14T12:40:17.023Z,25.67
2023-05-14T12:43:18.010Z,25.65
2023-05-14T12:46:20.190Z,25.95
2023-05-14T12:49:21.003Z,26.42
2023-05-14T12:52:36.052Z,26.76
2023-05-14T12:55:38.959Z,26.97
2023-05-14T12:58:39.954Z,27.14
2023-05-14T13:01:34.033Z,27.20
2023-05-14T13:04:35.305Z,27.32
2023-05-14T13:07:36.958Z,27.36
2023-05-14T13:10:39.075Z,27.51
2023-05-14T13:13:33.016Z,27.69
2023-05-14T13:16:34.059Z,27.61
2023-05-14T13:19:35.196Z,27.48
2023-05-14T13:22:36.028Z,27.55
2023-05-14T13:25:37.184Z,27.66
2023-05-14T13:28:38.011Z,27.74
2023-05-14T13:31:39.035Z,27.64
2023-05-14T13:34:40.047Z,27.59
2023-05-14T13:37:34.152Z,27.66
2023-05-14T13:40:35.011Z,27.71
2023-05-14T13:43:36.125Z,27.60
2023-05-14T13:46:37.265Z,27.43
2023-05-14T13:49:38.054Z,27.43
2023-05-14T13:52:39.061Z,27.64
2023-05-14T13:55:40.105Z,27.76
2023-05-14T13:58:41.093Z,27.52
2023-05-14T14:01:43.534Z,26.94
2023-05-14T14:04:46.248Z,26.33
2023-05-14T14:07:47.680Z,25.79
2023-05-14T14:10:50.119Z,25.64
2023-05-14T14:13:46.480Z,25.55
2023-05-14T14:16:27.379Z,25.65
2023-05-14T14:19:15.436Z,25.70
2023-05-14T14:21:56.300Z,25.70
2023-05-14T14:24:43.217Z,25.72
2023-05-14T14:27:23.230Z,25.72
2023-05-14T14:30:10.131Z,25.91
2023-05-14T14:32:50.308Z,26.20
2023-05-14T14:35:37.167Z,26.25
2023-05-14T14:38:24.156Z,26.30
2023-05-14T14:41:25.178Z,26.53
2023-05-14T14:44:26.274Z,26.68
2023-05-14T14:47:27.165Z,26.69
2023-05-14T14:50:28.528Z,26.62
2023-05-14T14:53:23.364Z,26.50
2023-05-14T14:56:17.265Z,26.37
2023-05-14T14:59:18.197Z,26.24
2023-05-14T15:02:19.193Z,26.24
2023-05-14T15:05:20.250Z,26.41
2023-05-14T15:08:21.224Z,26.55
2023-05-14T15:11:22.298Z,26.57
2023-05-14T15:14:23.218Z,26.46
2023-05-14T15:17:24.226Z,26.33
2023-05-14T15:20:25.327Z,26.25
2023-05-14T15:23:28.270Z,26.04
2023-05-14T15:26:29.310Z,25.78
2023-05-14T15:29:30.250Z,25.53
2023-05-14T15:32:34.262Z,25.35
2023-05-14T15:35:35.290Z,25.15
2023-05-14T15:38:36.284Z,24.90
2023-05-14T15:41:38.295Z,24.64
2023-05-14T15:44:39.306Z,24.48
2023-05-14T15:47:40.326Z,24.40
2023-05-14T15:50:41.303Z,24.30
2023-05-14T15:53:49.299Z,24.30
2023-05-14T15:56:50.329Z,24.20
2023-05-14T15:59:53.310Z,24.08
2023-05-14T16:02:54.328Z,24.05
2023-05-14T16:05:56.338Z,23.92
2023-05-14T16:08:57.341Z,23.76
2023-05-14T16:11:51.404Z,23.75
2023-05-14T16:14:53.337Z,23.83
2023-05-14T16:17:54.533Z,23.92
2023-05-14T16:20:55.517Z,24.00
2023-05-14T16:23:57.397Z,24.06
2023-05-14T16:27:00.399Z,24.09
2023-05-14T16:30:01.399Z,24.08
2023-05-14T16:33:04.870Z,23.98
2023-05-14T16:36:05.390Z,23.84
2023-05-14T16:39:08.018Z,23.71
2023-05-14T16:42:09.523Z,23.56
2023-05-14T16:45:10.541Z,23.41
2023-05-14T16:48:12.407Z,23.27
2023-05-14T16:51:13.402Z,23.14
2023-05-14T16:54:14.418Z,23.00
2023-05-14T16:57:15.412Z,22.87
2023-05-14T17:00:16.664Z,22.72
2023-05-14T17:03:17.457Z,22.60
2023-05-14T17:06:18.806Z,22.47
2023-05-14T17:09:19.596Z,22.37
2023-05-14T17:12:21.391Z,22.27
2023-05-14T17:15:22.486Z,22.17
2023-05-14T17:18:23.412Z,22.10
2023-05-14T17:21:24.466Z,22.01
2023-05-14T17:24:25.509Z,21.97
2023-05-14T17:27:26.471Z,21.92
2023-05-14T17:30:27.521Z,21.86
2023-05-14T17:33:28.454Z,21.81
2023-05-14T17:36:29.508Z,21.73
2023-05-14T17:39:30.507Z,21.64
2023-05-14T17:42:33.796Z,21.56
2023-05-14T17:45:46.246Z,21.45
2023-05-14T17:48:54.536Z,21.35
2023-05-14T17:51:55.579Z,21.27
2023-05-14T17:54:57.549Z,21.20
2023-05-14T17:57:58.578Z,21.14
2023-05-14T18:01:00.933Z,21.06
2023-05-14T18:04:01.614Z,21.00
2023-05-14T18:06:55.978Z,20.95
2023-05-14T18:09:56.634Z,20.91
2023-05-14T18:12:57.510Z,20.82
2023-05-14T18:16:00.716Z,20.74
2023-05-14T18:19:02.610Z,20.65
2023-05-14T18:22:03.568Z,20.58
2023-05-14T18:25:04.605Z,20.50
2023-05-14T18:28:05.625Z,20.43
2023-05-14T18:31:06.777Z,20.37
2023-05-14T18:34:07.614Z,20.30
2023-05-14T18:37:08.633Z,20.24
2023-05-14T18:40:09.664Z,20.17
2023-05-14T18:43:10.607Z,20.10
2023-05-14T18:46:11.649Z,20.04
2023-05-14T18:49:12.632Z,19.98
2023-05-14T18:52:13.626Z,19.90
2023-05-14T18:55:14.616Z,19.83
2023-05-14T18:58:15.603Z,19.77
2023-05-14T19:01:09.705Z,19.69
2023-05-14T19:04:05.427Z,19.63
2023-05-14T19:07:06.750Z,19.59
2023-05-14T19:10:07.694Z,19.56
2023-05-14T19:13:08.727Z,19.50
2023-05-14T19:16:09.646Z,19.41
2023-05-14T19:19:10.767Z,19.29
2023-05-14T19:22:11.758Z,19.18
2023-05-14T19:25:12.704Z,19.06
2023-05-14T19:28:13.912Z,18.94
2023-05-14T19:31:15.735Z,18.82
2023-05-14T19:34:18.679Z,18.71
2023-05-14T19:37:19.738Z,18.63
2023-05-14T19:40:20.749Z,18.58
2023-05-14T19:43:21.801Z,18.55
2023-05-14T19:46:22.746Z,18.56
2023-05-14T19:49:23.685Z,18.53
2023-05-14T19:52:24.749Z,18.49
2023-05-14T19:55:25.848Z,18.43
2023-05-14T19:58:19.842Z,18.36
2023-05-14T20:01:20.900Z,18.32
2023-05-14T20:04:22.771Z,18.28
2023-05-14T20:07:31.854Z,18.23
2023-05-14T20:10:25.976Z,18.20
2023-05-14T20:13:29.882Z,18.16
2023-05-14T20:16:30.890Z,18.11
2023-05-14T20:19:31.787Z,18.06
2023-05-14T20:22:34.347Z,18.01
2023-05-14T20:25:34.821Z,17.95
2023-05-14T20:28:35.813Z,17.92
2023-05-14T20:31:39.825Z,17.87
2023-05-14T20:34:42.006Z,17.84
2023-05-14T20:37:43.061Z,17.84
2023-05-14T20:40:45.001Z,17.83
2023-05-14T20:43:45.759Z,17.78
2023-05-14T20:46:50.130Z,17.72
2023-05-14T20:49:53.856Z,17.65
2023-05-14T20:52:59.617Z,17.57
2023-05-14T20:56:05.934Z,17.49
2023-05-14T20:59:06.958Z,17.40
2023-05-14T21:02:08.010Z,17.32
2023-05-14T21:05:10.915Z,17.22
2023-05-14T21:08:13.085Z,17.16
2023-05-14T21:11:13.871Z,17.14
2023-05-14T21:14:14.857Z,17.11
2023-05-14T21:17:15.889Z,17.05
2023-05-14T21:20:18.865Z,16.98
2023-05-14T21:23:19.978Z,16.91
2023-05-14T21:26:20.867Z,16.84
2023-05-14T21:29:21.867Z,16.76
2023-05-14T21:32:22.950Z,16.68
2023-05-14T21:35:24.113Z,16.61
2023-05-14T21:38:24.885Z,16.54
2023-05-14T21:41:25.910Z,16.45
2023-05-14T21:44:26.987Z,16.36
2023-05-14T21:47:28.103Z,16.29
2023-05-14T21:50:28.915Z,16.22
2023-05-14T21:53:29.931Z,16.19
2023-05-14T21:56:23.926Z,16.16
2023-05-14T21:59:24.895Z,16.16
2023-05-14T22:02:26.027Z,16.17
2023-05-14T22:05:27.267Z,16.20
2023-05-14T22:08:27.931Z,16.23
2023-05-14T22:11:30.980Z,16.23
2023-05-14T22:14:34.067Z,16.23
2023-05-14T22:17:35.054Z,16.23
2023-05-14T22:20:29.033Z,16.24
2023-05-14T22:23:30.003Z,16.25
2023-05-14T22:26:31.016Z,16.26
2023-05-14T22:29:31.984Z,16.28
2023-05-14T22:32:33.083Z,16.23
2023-05-14T22:35:33.980Z,16.13
2023-05-14T22:38:35.272Z,16.03
2023-05-14T22:41:36.024Z,15.95
2023-05-14T22:44:37.063Z,15.88
2023-05-14T22:47:38.115Z,15.83
2023-05-14T22:50:41.900Z,15.78
2023-05-14T22:53:43.015Z,15.73
2023-05-14T22:56:37.201Z,15.69
2023-05-14T22:59:38.101Z,15.64
2023-05-14T23:02:39.144Z,15.58
2023-05-14T23:05:42.018Z,15.53
2023-05-14T23:08:43.057Z,15.48
2023-05-14T23:11:44.292Z,15.47
2023-05-14T23:14:45.085Z,15.47
2023-05-14T23:17:46.139Z,15.48
2023-05-14T23:20:47.097Z,15.47
2023-05-14T23:23:48.081Z,15.46
2023-05-14T23:26:49.300Z,15.44
2023-05-14T23:29:50.085Z,15.41
2023-05-14T23:32:52.142Z,15.39
2023-05-14T23:35:55.109Z,15.38
2023-05-14T23:38:59.140Z,15.36
2023-05-14T23:42:00.183Z,15.33
2023-05-14T23:45:01.095Z,15.31
2023-05-14T23:48:02.300Z,15.25
2023-05-14T23:51:04.137Z,15.18
2023-05-14T23:54:05.160Z,15.09
2023-05-14T23:56:59.109Z,15.02
